createdAt,value
2019-04-26T00:01:17.031Z,13.83
2019-04-26T00:03:47.737Z,14.33
2019-04-26T00:06:18.608Z,12.82
2019-04-26T00:08:53.132Z,14.58
2019-04-26T00:11:35.059Z,13.95
2019-04-26T00:14:30.685Z,15.20
2019-04-26T00:17:11.483Z,13.93
2019-04-26T00:19:41.288Z,13.78
2019-04-26T00:22:10.985Z,14.28
2019-04-26T00:24:41.681Z,14.45
2019-04-26T00:27:11.431Z,13.65
2019-04-26T00:29:41.009Z,14.07
2019-04-26T00:32:11.900Z,14.03
2019-04-26T00:34:42.009Z,14.68
2019-04-26T00:37:11.756Z,15.45
2019-04-26T00:39:42.242Z,13.35
2019-04-26T00:42:13.148Z,14.83
2019-04-26T00:44:43.687Z,14.13
2019-04-26T00:47:15.178Z,16.40
2019-04-26T00:49:45.027Z,13.83
2019-04-26T00:52:15.794Z,13.50
2019-04-26T00:54:46.405Z,14.90
2019-04-26T00:57:18.323Z,15.85
2019-04-26T00:59:50.078Z,14.28
2019-04-26T01:02:26.556Z,15.32
2019-04-26T01:04:56.066Z,17.98
2019-04-26T01:07:25.640Z,15.15
2019-04-26T01:09:55.151Z,15.10
2019-04-26T01:12:24.803Z,15.08
2019-04-26T01:14:54.279Z,13.68
2019-04-26T01:17:24.597Z,13.38
2019-04-26T01:19:55.867Z,16.95
2019-04-26T01:22:28.345Z,16.48
2019-04-26T01:25:00.549Z,14.35
2019-04-26T01:27:31.844Z,16.55
2019-04-26T01:30:04.873Z,18.70
2019-04-26T01:32:37.020Z,18.67
2019-04-26T01:35:06.970Z,17.30
2019-04-26T01:37:38.272Z,15.53
2019-04-26T01:40:12.682Z,16.55
2019-04-26T01:43:08.432Z,14.50
2019-04-26T01:45:45.320Z,14.78
2019-04-26T01:48:39.282Z,15.40
2019-04-26T01:51:11.087Z,13.15
2019-04-26T01:53:41.724Z,14.33
2019-04-26T01:56:11.518Z,14.20
2019-04-26T01:58:41.444Z,14.83
2019-04-26T02:01:35.967Z,16.60
2019-04-26T02:04:06.990Z,15.68
2019-04-26T02:06:36.703Z,17.67
2019-04-26T02:09:09.580Z,16.77
2019-04-26T02:11:39.832Z,15.95
2019-04-26T02:14:09.640Z,15.15
2019-04-26T02:16:39.364Z,16.12
2019-04-26T02:19:08.878Z,13.28
2019-04-26T02:21:44.828Z,14.98
2019-04-26T02:24:34.354Z,15.48
2019-04-26T02:27:07.442Z,16.62
2019-04-26T02:29:36.978Z,14.63
2019-04-26T02:32:08.340Z,15.35
2019-04-26T02:34:38.804Z,14.05
2019-04-26T02:37:11.144Z,15.95
2019-04-26T02:39:42.049Z,14.78
2019-04-26T02:42:42.774Z,14.65
2019-04-26T02:45:58.513Z,16.62
2019-04-26T02:49:08.320Z,14.35
2019-04-26T02:51:41.443Z,16.95
2019-04-26T02:54:27.845Z,14.87
2019-04-26T02:57:02.630Z,15.45
2019-04-26T02:59:44.384Z,17.67
2019-04-26T03:02:23.859Z,15.50
2019-04-26T03:04:57.788Z,15.08
2019-04-26T03:07:58.619Z,15.53
2019-04-26T03:10:36.240Z,15.88
2019-04-26T03:13:10.057Z,14.63
2019-04-26T03:16:03.390Z,16.40
2019-04-26T03:19:01.146Z,13.60
2019-04-26T03:21:39.395Z,14.53
2019-04-26T03:24:21.102Z,14.98
2019-04-26T03:27:28.582Z,13.95
2019-04-26T03:30:19.427Z,16.17
2019-04-26T03:33:06.427Z,20.60
2019-04-26T03:36:03.220Z,15.68
2019-04-26T03:38:48.672Z,19.10
2019-04-26T03:42:10.333Z,14.07
2019-04-26T03:45:33.001Z,13.78
2019-04-26T03:48:16.266Z,15.32
2019-04-26T03:50:56.018Z,14.68
2019-04-26T03:53:32.105Z,17.62
2019-04-26T03:56:31.911Z,14.93
2019-04-26T03:59:36.214Z,16.48
2019-04-26T04:02:27.310Z,16.50
2019-04-26T04:05:17.269Z,16.67
2019-04-26T04:07:51.373Z,16.50
2019-04-26T04:10:24.191Z,17.62
2019-04-26T04:13:44.429Z,15.75
2019-04-26T04:16:18.009Z,14.83
2019-04-26T04:18:54.009Z,15.03
2019-04-26T04:21:39.270Z,14.70
2019-04-26T04:24:17.016Z,15.10
2019-04-26T04:27:21.047Z,17.75
2019-04-26T04:30:11.975Z,14.35
2019-04-26T04:33:09.565Z,17.15
2019-04-26T04:35:49.211Z,15.72
2019-04-26T04:38:42.037Z,20.32
2019-04-26T04:41:24.480Z,18.15
2019-04-26T04:44:26.041Z,17.10
2019-04-26T04:47:30.897Z,15.72
2019-04-26T04:50:18.347Z,23.05
2019-04-26T04:53:00.347Z,19.50
2019-04-26T04:55:45.207Z,19.37
2019-04-26T04:58:20.884Z,19.60
2019-04-26T05:01:52.546Z,20.62
2019-04-26T05:05:24.364Z,18.60
2019-04-26T05:08:25.033Z,21.10
2019-04-26T05:11:09.207Z,24.18
2019-04-26T05:13:55.807Z,23.60
2019-04-26T05:16:50.985Z,22.98
2019-04-26T05:19:57.014Z,22.17
2019-04-26T05:23:02.043Z,20.10
2019-04-26T05:26:30.214Z,22.77
2019-04-26T05:29:40.195Z,21.70
2019-04-26T05:32:24.802Z,17.05
2019-04-26T05:35:39.088Z,19.62
2019-04-26T05:38:24.811Z,19.70
2019-04-26T05:41:22.405Z,22.98
2019-04-26T05:44:18.609Z,20.43
2019-04-26T05:47:26.598Z,17.87
2019-04-26T05:50:51.878Z,21.52
2019-04-26T05:53:59.289Z,20.12
2019-04-26T05:56:43.927Z,16.32
2019-04-26T05:59:29.340Z,18.48
2019-04-26T06:02:20.682Z,19.95
2019-04-26T06:05:29.277Z,15.48
2019-04-26T06:08:15.976Z,19.12
2019-04-26T06:10:56.481Z,18.92
2019-04-26T06:14:15.975Z,18.15
2019-04-26T06:17:19.347Z,17.15
2019-04-26T06:20:21.975Z,21.45
2019-04-26T06:23:13.627Z,18.87
2019-04-26T06:25:58.330Z,21.30
2019-04-26T06:28:42.940Z,19.98
2019-04-26T06:31:33.723Z,14.83
2019-04-26T06:34:32.455Z,16.62
2019-04-26T06:37:38.647Z,16.25
2019-04-26T06:40:41.668Z,16.85
2019-04-26T06:43:32.409Z,16.97
2019-04-26T06:46:47.586Z,24.57
2019-04-26T06:50:22.825Z,22.45
2019-04-26T06:53:11.707Z,24.80
2019-04-26T06:55:54.406Z,27.07
2019-04-26T06:59:03.637Z,25.92
2019-04-26T07:01:40.680Z,25.45
2019-04-26T07:04:19.533Z,18.82
2019-04-26T07:07:34.995Z,23.30
2019-04-26T07:10:30.309Z,23.47
2019-04-26T07:13:38.588Z,23.87
2019-04-26T07:16:34.025Z,21.85
2019-04-26T07:19:21.088Z,21.35
2019-04-26T07:22:35.118Z,23.07
2019-04-26T07:25:47.725Z,19.52
2019-04-26T07:28:47.811Z,18.20
2019-04-26T07:31:32.964Z,18.42
2019-04-26T07:34:52.281Z,18.32
2019-04-26T07:37:40.406Z,19.45
2019-04-26T07:41:03.089Z,19.15
2019-04-26T07:44:17.816Z,17.80
2019-04-26T07:47:15.667Z,17.25
2019-04-26T07:50:28.337Z,15.80
2019-04-26T07:53:44.106Z,16.57
2019-04-26T07:56:38.174Z,15.63
2019-04-26T07:59:56.269Z,20.90
2019-04-26T08:02:52.448Z,17.67
2019-04-26T08:05:46.191Z,13.70
2019-04-26T08:08:19.388Z,15.15
2019-04-26T08:11:04.612Z,18.27
2019-04-26T08:13:37.239Z,13.70
2019-04-26T08:16:34.712Z,14.10
2019-04-26T08:19:08.525Z,15.75
2019-04-26T08:21:47.824Z,11.33
2019-04-26T08:24:28.128Z,14.47
2019-04-26T08:27:23.681Z,11.43
2019-04-26T08:30:10.482Z,14.13
2019-04-26T08:32:43.185Z,12.10
2019-04-26T08:35:29.636Z,15.08
2019-04-26T08:38:08.292Z,15.60
2019-04-26T08:40:38.074Z,16.37
2019-04-26T08:43:30.547Z,13.78
2019-04-26T08:46:23.739Z,14.23
2019-04-26T08:49:11.141Z,12.78
2019-04-26T08:51:42.930Z,11.12
2019-04-26T08:54:20.468Z,14.15
2019-04-26T08:56:54.261Z,10.43
2019-04-26T08:59:27.499Z,12.82
2019-04-26T09:02:26.399Z,11.93
2019-04-26T09:05:19.000Z,13.05
2019-04-26T09:07:53.422Z,15.58
2019-04-26T09:10:24.829Z,16.70
2019-04-26T09:12:56.848Z,13.55
2019-04-26T09:16:11.590Z,10.48
2019-04-26T09:18:44.138Z,17.57
2019-04-26T09:21:17.087Z,12.65
2019-04-26T09:24:02.215Z,10.82
2019-04-26T09:26:37.783Z,11.57
2019-04-26T09:29:30.406Z,9.98
2019-04-26T09:32:04.135Z,10.95
2019-04-26T09:34:33.721Z,12.98
2019-04-26T09:37:03.285Z,11.22
2019-04-26T09:39:32.799Z,11.75
2019-04-26T09:42:09.800Z,11.53
2019-04-26T09:44:47.794Z,9.63
2019-04-26T09:47:36.247Z,12.00
2019-04-26T09:50:20.737Z,11.05
2019-04-26T09:52:51.555Z,14.63
2019-04-26T09:55:21.071Z,11.50
2019-04-26T09:57:53.512Z,14.13
2019-04-26T10:00:28.615Z,12.13
2019-04-26T10:02:58.134Z,15.25
2019-04-26T10:05:27.722Z,17.80
2019-04-26T10:07:57.279Z,17.00
2019-04-26T10:10:31.034Z,23.73
2019-04-26T10:13:22.156Z,15.35
2019-04-26T10:16:10.615Z,16.02
2019-04-26T10:18:42.032Z,15.00
2019-04-26T10:21:11.506Z,15.40
2019-04-26T10:23:41.440Z,11.83
2019-04-26T10:26:11.093Z,11.43
2019-04-26T10:28:40.618Z,13.53
2019-04-26T10:31:13.457Z,13.00
2019-04-26T10:33:41.408Z,13.18
2019-04-26T10:36:10.915Z,15.38
2019-04-26T10:38:40.457Z,17.45
2019-04-26T10:41:13.869Z,12.13
2019-04-26T10:43:43.966Z,16.67
2019-04-26T10:46:14.031Z,12.47
2019-04-26T10:48:45.469Z,14.58
2019-04-26T10:51:17.433Z,12.03
2019-04-26T10:54:01.718Z,22.05
2019-04-26T10:56:58.166Z,13.65
2019-04-26T10:59:52.774Z,17.05
2019-04-26T11:02:22.450Z,13.85
2019-04-26T11:04:52.257Z,15.40
2019-04-26T11:07:22.252Z,14.98
2019-04-26T11:09:51.826Z,15.50
2019-04-26T11:12:21.426Z,11.08
2019-04-26T11:14:53.260Z,19.45
2019-04-26T11:17:22.764Z,15.38
2019-04-26T11:19:52.298Z,17.17
2019-04-26T11:22:28.946Z,18.25
2019-04-26T11:24:54.932Z,14.10
2019-04-26T11:27:24.617Z,14.45
2019-04-26T11:29:54.340Z,16.20
2019-04-26T11:32:23.904Z,13.53
2019-04-26T11:34:54.596Z,11.90
2019-04-26T11:37:24.677Z,12.53
2019-04-26T11:39:54.243Z,12.18
2019-04-26T11:42:26.065Z,11.60
2019-04-26T11:45:05.580Z,11.78
2019-04-26T11:47:26.760Z,13.15
2019-04-26T11:49:56.407Z,10.75
2019-04-26T11:52:25.958Z,20.35
2019-04-26T11:54:56.238Z,23.77
2019-04-26T11:57:25.867Z,12.68
2019-04-26T11:59:55.383Z,25.27
2019-04-26T12:02:26.510Z,19.98
2019-04-26T12:05:18.971Z,18.12
2019-04-26T12:07:55.560Z,25.05
2019-04-26T12:10:27.139Z,11.73
2019-04-26T12:13:05.636Z,21.52
2019-04-26T12:15:30.512Z,15.48
2019-04-26T12:17:59.579Z,13.72
2019-04-26T12:20:29.181Z,15.72
2019-04-26T12:22:58.725Z,11.65
2019-04-26T12:25:30.994Z,12.90
2019-04-26T12:28:01.921Z,13.85
2019-04-26T12:30:30.874Z,10.55
2019-04-26T12:33:00.403Z,11.33
2019-04-26T12:35:30.172Z,10.98
2019-04-26T12:37:59.757Z,13.60
2019-04-26T12:40:29.318Z,10.25
2019-04-26T12:42:58.854Z,9.53
2019-04-26T12:45:47.375Z,10.30
2019-04-26T12:48:19.105Z,10.25
2019-04-26T12:50:48.656Z,9.23
2019-04-26T12:53:18.292Z,8.35
2019-04-26T12:55:49.157Z,9.30
2019-04-26T12:58:19.105Z,8.43
2019-04-26T13:00:54.330Z,9.35
2019-04-26T13:03:20.873Z,11.60
2019-04-26T13:05:57.767Z,8.25
2019-04-26T13:08:21.844Z,10.13
2019-04-26T13:11:19.201Z,9.33
2019-04-26T13:13:59.491Z,9.75
2019-04-26T13:16:42.226Z,10.38
2019-04-26T13:19:11.769Z,11.03
2019-04-26T13:21:41.266Z,9.50
2019-04-26T13:24:10.780Z,11.90
2019-04-26T13:26:40.329Z,8.35
2019-04-26T13:29:09.878Z,7.37
2019-04-26T13:31:39.386Z,10.90
2019-04-26T13:34:09.005Z,8.38
2019-04-26T13:36:38.491Z,9.20
2019-04-26T13:39:13.542Z,9.33
2019-04-26T13:41:43.272Z,8.85
2019-04-26T13:44:12.785Z,9.15
2019-04-26T13:47:07.996Z,9.23
2019-04-26T13:49:43.708Z,8.65
2019-04-26T13:52:13.355Z,8.25
2019-04-26T13:54:42.821Z,6.45
2019-04-26T13:57:12.425Z,8.08
2019-04-26T13:59:42.016Z,8.25
2019-04-26T14:02:12.214Z,10.85
2019-04-26T14:04:42.653Z,7.92
2019-04-26T14:07:12.371Z,7.80
2019-04-26T14:09:41.929Z,7.00
2019-04-26T14:12:18.677Z,8.58
2019-04-26T14:14:42.870Z,7.92
2019-04-26T14:17:12.444Z,9.83
2019-04-26T14:19:45.360Z,8.05
2019-04-26T14:22:15.102Z,15.00
2019-04-26T14:24:56.913Z,8.55
2019-04-26T14:27:31.905Z,10.18
2019-04-26T14:30:02.558Z,8.05
2019-04-26T14:32:32.725Z,8.45
2019-04-26T14:35:02.382Z,7.53
2019-04-26T14:37:31.996Z,8.80
2019-04-26T14:40:15.994Z,8.75
2019-04-26T14:42:41.954Z,9.85
2019-04-26T14:45:06.049Z,7.95
2019-04-26T14:47:46.720Z,9.15
2019-04-26T14:50:14.257Z,8.93
2019-04-26T14:52:39.340Z,8.80
2019-04-26T14:55:09.074Z,7.67
2019-04-26T14:57:38.784Z,9.05
2019-04-26T15:00:10.108Z,7.97
2019-04-26T15:02:55.804Z,8.60
2019-04-26T15:05:29.526Z,9.75
2019-04-26T15:07:59.697Z,8.88
2019-04-26T15:10:43.916Z,8.48
2019-04-26T15:13:17.428Z,8.20
2019-04-26T15:15:38.990Z,9.18
2019-04-26T15:18:08.570Z,8.65
2019-04-26T15:20:38.116Z,10.60
2019-04-26T15:23:07.664Z,11.28
2019-04-26T15:25:37.255Z,8.23
2019-04-26T15:28:11.162Z,8.23
2019-04-26T15:30:45.993Z,8.00
2019-04-26T15:33:12.659Z,11.65
2019-04-26T15:35:42.160Z,8.98
2019-04-26T15:38:11.935Z,10.95
2019-04-26T15:41:04.486Z,9.58
2019-04-26T15:43:42.848Z,7.30
2019-04-26T15:46:37.441Z,9.25
2019-04-26T15:49:26.134Z,7.62
2019-04-26T15:51:56.408Z,8.40
2019-04-26T15:54:27.440Z,8.60
2019-04-26T15:56:57.248Z,8.95
2019-04-26T15:59:26.854Z,11.20
2019-04-26T16:01:56.545Z,10.45
2019-04-26T16:04:26.275Z,10.08
2019-04-26T16:06:55.886Z,8.40
2019-04-26T16:09:27.812Z,8.50
2019-04-26T16:11:57.469Z,7.70
2019-04-26T16:14:31.281Z,8.90
2019-04-26T16:17:02.506Z,7.45
2019-04-26T16:19:29.682Z,9.15
2019-04-26T16:21:59.251Z,11.97
2019-04-26T16:24:29.230Z,8.45
2019-04-26T16:26:59.075Z,10.40
2019-04-26T16:29:58.411Z,9.65
2019-04-26T16:32:58.641Z,9.50
2019-04-26T16:35:28.332Z,14.15
2019-04-26T16:38:00.225Z,16.05
2019-04-26T16:40:29.821Z,19.90
2019-04-26T16:42:59.868Z,12.45
2019-04-26T16:45:29.431Z,17.10
2019-04-26T16:47:59.105Z,12.03
2019-04-26T16:50:31.631Z,15.05
2019-04-26T16:52:59.933Z,10.90
2019-04-26T16:55:29.417Z,13.78
2019-04-26T16:57:59.087Z,13.62
2019-04-26T17:00:48.171Z,11.15
2019-04-26T17:03:03.897Z,12.47
2019-04-26T17:05:45.508Z,13.40
2019-04-26T17:08:05.069Z,14.40
2019-04-26T17:10:34.386Z,15.38
2019-04-26T17:13:04.219Z,20.77
2019-04-26T17:15:34.531Z,11.90
2019-04-26T17:18:04.375Z,19.02
2019-04-26T17:20:34.111Z,14.68
2019-04-26T17:23:15.030Z,13.93
2019-04-26T17:26:09.805Z,15.80
2019-04-26T17:28:39.850Z,20.12
2019-04-26T17:31:09.856Z,12.73
2019-04-26T17:33:39.492Z,16.93
2019-04-26T17:36:11.441Z,13.65
2019-04-26T17:38:45.868Z,15.72
2019-04-26T17:41:15.444Z,16.30
2019-04-26T17:43:47.488Z,13.48
2019-04-26T17:46:18.347Z,17.57
2019-04-26T17:48:49.439Z,17.62
2019-04-26T17:51:22.701Z,22.45
2019-04-26T17:54:12.883Z,17.80
2019-04-26T17:56:26.125Z,13.22
2019-04-26T17:58:55.115Z,16.73
2019-04-26T18:01:42.000Z,18.10
2019-04-26T18:03:56.390Z,13.38
2019-04-26T18:06:29.841Z,14.53
2019-04-26T18:08:57.318Z,14.13
2019-04-26T18:11:26.860Z,10.13
2019-04-26T18:13:56.642Z,14.50
2019-04-26T18:16:29.510Z,15.72
2019-04-26T18:19:12.788Z,19.32
2019-04-26T18:22:01.357Z,16.07
2019-04-26T18:24:32.266Z,14.87
2019-04-26T18:27:03.550Z,15.28
2019-04-26T18:29:33.947Z,14.20
2019-04-26T18:32:04.648Z,18.70
2019-04-26T18:34:40.107Z,14.83
2019-04-26T18:37:07.462Z,16.30
2019-04-26T18:39:37.219Z,13.68
2019-04-26T18:42:06.879Z,13.60
2019-04-26T18:44:39.405Z,10.13
2019-04-26T18:47:28.312Z,14.20
2019-04-26T18:49:59.265Z,12.53
2019-04-26T18:52:30.528Z,13.08
2019-04-26T18:55:21.570Z,10.05
2019-04-26T18:57:55.195Z,10.25
2019-04-26T19:00:48.240Z,13.45
2019-04-26T19:03:18.972Z,19.07
2019-04-26T19:05:48.487Z,14.20
2019-04-26T19:08:20.833Z,14.68
2019-04-26T19:10:59.204Z,15.50
2019-04-26T19:13:48.810Z,10.45
2019-04-26T19:16:26.949Z,12.80
2019-04-26T19:19:25.356Z,12.53
2019-04-26T19:22:03.212Z,9.05
2019-04-26T19:24:32.504Z,13.00
2019-04-26T19:27:04.122Z,11.60
2019-04-26T19:29:35.632Z,18.40
2019-04-26T19:32:04.845Z,13.05
2019-04-26T19:34:34.374Z,16.95
2019-04-26T19:37:04.375Z,13.70
2019-04-26T19:39:35.765Z,12.88
2019-04-26T19:42:06.255Z,17.37
2019-04-26T19:44:36.097Z,12.93
2019-04-26T19:47:18.839Z,13.20
2019-04-26T19:50:09.481Z,10.50
2019-04-26T19:52:45.039Z,9.35
2019-04-26T19:55:36.640Z,9.98
2019-04-26T19:58:16.657Z,12.55
2019-04-26T20:00:46.717Z,13.22
2019-04-26T20:03:16.756Z,12.15
2019-04-26T20:05:46.226Z,14.70
2019-04-26T20:08:15.751Z,12.00
2019-04-26T20:10:45.935Z,10.03
2019-04-26T20:13:16.771Z,10.43
2019-04-26T20:15:46.348Z,9.85
2019-04-26T20:18:17.491Z,9.68
2019-04-26T20:20:47.386Z,13.58
2019-04-26T20:23:19.332Z,11.00
2019-04-26T20:25:48.617Z,8.70
2019-04-26T20:28:18.173Z,10.18
2019-04-26T20:31:15.822Z,9.80
2019-04-26T20:33:47.669Z,13.10
2019-04-26T20:36:16.724Z,12.88
2019-04-26T20:38:47.525Z,10.78
2019-04-26T20:41:17.325Z,9.95
2019-04-26T20:44:02.461Z,10.58
2019-04-26T20:46:18.221Z,11.25
2019-04-26T20:48:47.805Z,13.38
2019-04-26T20:51:18.291Z,10.00
2019-04-26T20:53:48.169Z,9.43
2019-04-26T20:56:18.773Z,10.08
2019-04-26T20:58:48.460Z,9.28
2019-04-26T21:01:18.036Z,8.08
2019-04-26T21:03:47.615Z,8.73
2019-04-26T21:06:17.207Z,8.60
2019-04-26T21:08:46.748Z,10.45
2019-04-26T21:11:16.316Z,9.05
2019-04-26T21:13:45.878Z,9.43
2019-04-26T21:16:15.739Z,10.50
2019-04-26T21:18:45.333Z,12.13
2019-04-26T21:21:16.176Z,11.28
2019-04-26T21:23:48.179Z,10.80
2019-04-26T21:26:39.859Z,12.15
2019-04-26T21:29:27.185Z,9.08
2019-04-26T21:32:16.383Z,9.30
2019-04-26T21:34:50.812Z,11.55
2019-04-26T21:37:43.147Z,9.63
2019-04-26T21:40:38.248Z,8.93
2019-04-26T21:43:07.954Z,10.35
2019-04-26T21:45:37.455Z,9.78
2019-04-26T21:48:08.051Z,9.18
2019-04-26T21:50:39.049Z,10.50
2019-04-26T21:53:08.758Z,8.30
2019-04-26T21:55:38.928Z,10.35
2019-04-26T21:58:08.687Z,9.10
2019-04-26T22:00:57.215Z,9.20
2019-04-26T22:03:27.577Z,8.35
2019-04-26T22:05:57.077Z,10.28
2019-04-26T22:08:30.144Z,11.68
2019-04-26T22:10:59.779Z,10.48
2019-04-26T22:13:45.079Z,9.73
2019-04-26T22:16:34.093Z,11.03
2019-04-26T22:19:21.491Z,9.50
2019-04-26T22:22:11.818Z,8.70
2019-04-26T22:24:41.475Z,10.95
2019-04-26T22:27:11.171Z,11.55
2019-04-26T22:29:41.282Z,12.03
2019-04-26T22:32:15.423Z,9.05
2019-04-26T22:34:46.193Z,9.05
2019-04-26T22:37:18.899Z,10.03
2019-04-26T22:39:45.579Z,8.85
2019-04-26T22:42:15.588Z,11.68
2019-04-26T22:44:54.089Z,12.78
2019-04-26T22:47:40.676Z,9.78
2019-04-26T22:50:05.306Z,8.53
2019-04-26T22:52:34.862Z,10.30
2019-04-26T22:55:04.925Z,8.45
2019-04-26T22:57:34.469Z,11.60
2019-04-26T23:00:04.272Z,8.95
2019-04-26T23:02:33.866Z,10.75
2019-04-26T23:05:05.721Z,10.72
2019-04-26T23:07:34.723Z,9.28
2019-04-26T23:10:06.112Z,12.03
2019-04-26T23:12:50.856Z,8.85
2019-04-26T23:15:43.294Z,11.38
2019-04-26T23:18:30.904Z,8.98
2019-04-26T23:21:07.686Z,10.75
2019-04-26T23:23:37.142Z,10.78
2019-04-26T23:26:07.718Z,9.03
2019-04-26T23:28:37.281Z,8.83
2019-04-26T23:31:08.288Z,9.00
2019-04-26T23:33:38.247Z,10.85
2019-04-26T23:36:07.880Z,9.65
2019-04-26T23:38:37.761Z,7.67
2019-04-26T23:41:07.550Z,11.65
2019-04-26T23:43:37.249Z,8.68
2019-04-26T23:46:06.765Z,9.58
2019-04-26T23:48:36.256Z,9.75
2019-04-26T23:51:08.378Z,10.38
2019-04-26T23:53:37.026Z,11.10
2019-04-26T23:56:06.503Z,10.70
2019-04-26T23:58:36.070Z,8.83
